sensor_id;sensor_type;location;lat;lon;timestamp;P1;durP1;ratioP1;P2;durP2;ratioP2
419;SDS011;42600;54.408;13.016;2022-08-01T00:02:10;3.30;;;1.53;;
419;SDS011;42600;54.408;13.016;2022-08-01T00:04:37;3.33;;;1.40;;
419;SDS011;42600;54.408;13.016;2022-08-01T00:07:04;1.80;;;1.10;;
419;SDS011;42600;54.408;13.016;2022-08-01T00:09:32;2.50;;;1.00;;
419;SDS011;42600;54.408;13.016;2022-08-01T00:11:59;2.80;;;1.53;;
419;SDS011;42600;54.408;13.016;2022-08-01T00:14:25;2.80;;;1.33;;
419;SDS011;42600;54.408;13.016;2022-08-01T00:16:52;2.80;;;1.10;;
419;SDS011;42600;54.408;13.016;2022-08-01T00:19:19;3.07;;;1.23;;
419;SDS011;42600;54.408;13.016;2022-08-01T00:21:45;2.10;;;1.13;;
419;SDS011;42600;54.408;13.016;2022-08-01T00:24:12;4.33;;;1.60;;
419;SDS011;42600;54.408;13.016;2022-08-01T00:26:40;2.60;;;0.93;;
419;SDS011;42600;54.408;13.016;2022-08-01T00:29:06;2.03;;;1.23;;
419;SDS011;42600;54.408;13.016;2022-08-01T00:31:33;8.87;;;1.80;;
419;SDS011;42600;54.408;13.016;2022-08-01T00:34:00;2.93;;;1.40;;
419;SDS011;42600;54.408;13.016;2022-08-01T00:36:26;3.13;;;1.20;;
419;SDS011;42600;54.408;13.016;2022-08-01T00:38:53;6.90;;;1.20;;
419;SDS011;42600;54.408;13.016;2022-08-01T00:41:20;2.27;;;1.20;;
419;SDS011;42600;54.408;13.016;2022-08-01T00:43:47;3.50;;;1.40;;
419;SDS011;42600;54.408;13.016;2022-08-01T00:46:14;2.80;;;1.13;;
419;SDS011;42600;54.408;13.016;2022-08-01T00:48:41;1.63;;;0.90;;
419;SDS011;42600;54.408;13.016;2022-08-01T00:51:08;1.90;;;1.23;;
419;SDS011;42600;54.408;13.016;2022-08-01T00:53:34;1.63;;;0.97;;
419;SDS011;42600;54.408;13.016;2022-08-01T00:56:01;4.33;;;1.97;;
419;SDS011;42600;54.408;13.016;2022-08-01T00:58:28;2.77;;;1.73;;
419;SDS011;42600;54.408;13.016;2022-08-01T01:00:58;4.43;;;1.60;;
419;SDS011;42600;54.408;13.016;2022-08-01T01:03:25;2.63;;;1.57;;
419;SDS011;42600;54.408;13.016;2022-08-01T01:05:55;3.00;;;1.50;;
419;SDS011;42600;54.408;13.016;2022-08-01T01:08:32;3.17;;;1.40;;
419;SDS011;42600;54.408;13.016;2022-08-01T01:11:04;3.73;;;1.20;;
419;SDS011;42600;54.408;13.016;2022-08-01T01:13:37;6.40;;;2.10;;
419;SDS011;42600;54.408;13.016;2022-08-01T01:16:08;2.53;;;1.50;;
419;SDS011;42600;54.408;13.016;2022-08-01T01:18:41;2.13;;;1.40;;
419;SDS011;42600;54.408;13.016;2022-08-01T01:21:13;2.50;;;1.40;;
419;SDS011;42600;54.408;13.016;2022-08-01T01:23:58;2.53;;;1.63;;
419;SDS011;42600;54.408;13.016;2022-08-01T01:26:36;5.60;;;1.77;;
419;SDS011;42600;54.408;13.016;2022-08-01T01:29:13;3.27;;;1.30;;
419;SDS011;42600;54.408;13.016;2022-08-01T01:31:43;1.60;;;1.20;;
419;SDS011;42600;54.408;13.016;2022-08-01T01:34:15;4.30;;;1.60;;
419;SDS011;42600;54.408;13.016;2022-08-01T01:36:44;1.93;;;0.90;;
419;SDS011;42600;54.408;13.016;2022-08-01T01:39:13;2.40;;;1.30;;
419;SDS011;42600;54.408;13.016;2022-08-01T01:41:41;2.73;;;1.60;;
419;SDS011;42600;54.408;13.016;2022-08-01T01:44:10;2.30;;;1.20;;
419;SDS011;42600;54.408;13.016;2022-08-01T01:46:39;1.97;;;1.20;;
419;SDS011;42600;54.408;13.016;2022-08-01T01:49:07;5.67;;;1.60;;
419;SDS011;42600;54.408;13.016;2022-08-01T01:51:35;2.80;;;1.00;;
419;SDS011;42600;54.408;13.016;2022-08-01T01:54:04;1.73;;;1.20;;
419;SDS011;42600;54.408;13.016;2022-08-01T01:56:32;1.90;;;1.00;;
419;SDS011;42600;54.408;13.016;2022-08-01T01:59:13;3.57;;;1.23;;
419;SDS011;42600;54.408;13.016;2022-08-01T02:01:43;2.60;;;1.40;;
419;SDS011;42600;54.408;13.016;2022-08-01T02:04:12;1.40;;;0.90;;
419;SDS011;42600;54.408;13.016;2022-08-01T02:06:39;2.67;;;1.00;;
419;SDS011;42600;54.408;13.016;2022-08-01T02:09:07;1.97;;;1.03;;
419;SDS011;42600;54.408;13.016;2022-08-01T02:11:35;1.93;;;0.80;;
419;SDS011;42600;54.408;13.016;2022-08-01T02:14:03;1.30;;;0.87;;
419;SDS011;42600;54.408;13.016;2022-08-01T02:16:33;2.70;;;1.37;;
419;SDS011;42600;54.408;13.016;2022-08-01T02:19:03;2.07;;;0.90;;
419;SDS011;42600;54.408;13.016;2022-08-01T02:21:30;1.80;;;1.23;;
419;SDS011;42600;54.408;13.016;2022-08-01T02:24:03;2.20;;;1.00;;
419;SDS011;42600;54.408;13.016;2022-08-01T02:26:38;1.50;;;0.80;;
419;SDS011;42600;54.408;13.016;2022-08-01T02:29:06;1.67;;;0.90;;
419;SDS011;42600;54.408;13.016;2022-08-01T02:31:38;2.70;;;1.20;;
419;SDS011;42600;54.408;13.016;2022-08-01T02:34:11;2.67;;;1.40;;
419;SDS011;42600;54.408;13.016;2022-08-01T02:36:41;2.80;;;1.10;;
419;SDS011;42600;54.408;13.016;2022-08-01T02:39:11;1.63;;;0.87;;
419;SDS011;42600;54.408;13.016;2022-08-01T02:41:41;3.77;;;1.30;;
419;SDS011;42600;54.408;13.016;2022-08-01T02:44:10;3.83;;;1.70;;
419;SDS011;42600;54.408;13.016;2022-08-01T02:46:42;5.33;;;1.40;;
419;SDS011;42600;54.408;13.016;2022-08-01T02:49:17;3.03;;;1.07;;
419;SDS011;42600;54.408;13.016;2022-08-01T02:51:46;2.60;;;1.03;;
419;SDS011;42600;54.408;13.016;2022-08-01T02:54:14;2.40;;;1.30;;
419;SDS011;42600;54.408;13.016;2022-08-01T02:56:43;3.03;;;1.13;;
419;SDS011;42600;54.408;13.016;2022-08-01T02:59:12;5.97;;;1.63;;
419;SDS011;42600;54.408;13.016;2022-08-01T03:01:41;2.43;;;1.20;;
419;SDS011;42600;54.408;13.016;2022-08-01T03:04:10;3.10;;;1.07;;
419;SDS011;42600;54.408;13.016;2022-08-01T03:06:39;1.60;;;1.10;;
419;SDS011;42600;54.408;13.016;2022-08-01T03:09:06;3.90;;;1.27;;
419;SDS011;42600;54.408;13.016;2022-08-01T03:11:34;2.50;;;1.00;;
419;SDS011;42600;54.408;13.016;2022-08-01T03:14:05;1.77;;;1.00;;
419;SDS011;42600;54.408;13.016;2022-08-01T03:16:35;3.03;;;1.13;;
419;SDS011;42600;54.408;13.016;2022-08-01T03:19:04;4.23;;;1.47;;
419;SDS011;42600;54.408;13.016;2022-08-01T03:21:33;1.97;;;1.47;;
419;SDS011;42600;54.408;13.016;2022-08-01T03:24:03;2.40;;;1.67;;
419;SDS011;42600;54.408;13.016;2022-08-01T03:26:33;4.13;;;1.70;;
419;SDS011;42600;54.408;13.016;2022-08-01T03:29:04;1.37;;;0.77;;
419;SDS011;42600;54.408;13.016;2022-08-01T03:31:32;6.97;;;1.33;;
419;SDS011;42600;54.408;13.016;2022-08-01T03:34:01;7.80;;;1.40;;
419;SDS011;42600;54.408;13.016;2022-08-01T03:36:28;4.13;;;1.60;;
419;SDS011;42600;54.408;13.016;2022-08-01T03:38:58;12.43;;;1.60;;
419;SDS011;42600;54.408;13.016;2022-08-01T03:41:29;3.47;;;1.80;;
419;SDS011;42600;54.408;13.016;2022-08-01T03:44:00;3.53;;;1.37;;
419;SDS011;42600;54.408;13.016;2022-08-01T03:46:32;2.70;;;1.20;;
419;SDS011;42600;54.408;13.016;2022-08-01T03:49:03;2.50;;;1.40;;
419;SDS011;42600;54.408;13.016;2022-08-01T03:51:33;2.37;;;1.20;;
419;SDS011;42600;54.408;13.016;2022-08-01T03:54:02;1.80;;;1.00;;
419;SDS011;42600;54.408;13.016;2022-08-01T03:56:32;3.17;;;1.40;;
419;SDS011;42600;54.408;13.016;2022-08-01T03:59:00;14.07;;;1.40;;
419;SDS011;42600;54.408;13.016;2022-08-01T04:01:29;6.10;;;1.70;;
419;SDS011;42600;54.408;13.016;2022-08-01T04:03:58;2.20;;;1.30;;
419;SDS011;42600;54.408;13.016;2022-08-01T04:06:26;5.03;;;1.73;;
419;SDS011;42600;54.408;13.016;2022-08-01T04:08:52;15.13;;;1.50;;
419;SDS011;42600;54.408;13.016;2022-08-01T04:11:23;3.83;;;1.60;;
419;SDS011;42600;54.408;13.016;2022-08-01T04:13:52;1.83;;;1.00;;
419;SDS011;42600;54.408;13.016;2022-08-01T04:16:19;4.50;;;1.40;;
419;SDS011;42600;54.408;13.016;2022-08-01T04:18:46;3.93;;;1.40;;
419;SDS011;42600;54.408;13.016;2022-08-01T04:21:13;12.97;;;1.87;;
419;SDS011;42600;54.408;13.016;2022-08-01T04:23:42;3.90;;;1.33;;
419;SDS011;42600;54.408;13.016;2022-08-01T04:26:10;5.10;;;1.33;;
419;SDS011;42600;54.408;13.016;2022-08-01T04:28:39;3.07;;;1.47;;
419;SDS011;42600;54.408;13.016;2022-08-01T04:31:10;3.00;;;1.10;;
419;SDS011;42600;54.408;13.016;2022-08-01T04:33:39;1.70;;;1.10;;
419;SDS011;42600;54.408;13.016;2022-08-01T04:36:10;3.43;;;1.87;;
419;SDS011;42600;54.408;13.016;2022-08-01T04:38:40;3.80;;;1.23;;
419;SDS011;42600;54.408;13.016;2022-08-01T04:41:12;3.20;;;1.80;;
419;SDS011;42600;54.408;13.016;2022-08-01T04:43:40;3.17;;;1.47;;
419;SDS011;42600;54.408;13.016;2022-08-01T04:46:07;4.10;;;1.70;;
419;SDS011;42600;54.408;13.016;2022-08-01T04:48:37;2.43;;;1.37;;
419;SDS011;42600;54.408;13.016;2022-08-01T04:51:04;2.53;;;1.47;;
419;SDS011;42600;54.408;13.016;2022-08-01T04:53:38;3.67;;;1.60;;
419;SDS011;42600;54.408;13.016;2022-08-01T04:56:05;2.03;;;1.10;;
419;SDS011;42600;54.408;13.016;2022-08-01T04:58:31;3.27;;;1.57;;
419;SDS011;42600;54.408;13.016;2022-08-01T05:00:58;6.70;;;1.70;;
419;SDS011;42600;54.408;13.016;2022-08-01T05:03:26;4.13;;;1.47;;
419;SDS011;42600;54.408;13.016;2022-08-01T05:05:53;3.83;;;1.50;;
419;SDS011;42600;54.408;13.016;2022-08-01T05:08:20;2.97;;;1.70;;
419;SDS011;42600;54.408;13.016;2022-08-01T05:10:46;4.00;;;1.90;;
419;SDS011;42600;54.408;13.016;2022-08-01T05:13:13;3.80;;;1.50;;
419;SDS011;42600;54.408;13.016;2022-08-01T05:15:40;2.73;;;1.10;;
419;SDS011;42600;54.408;13.016;2022-08-01T05:18:07;2.57;;;1.40;;
419;SDS011;42600;54.408;13.016;2022-08-01T05:20:35;8.13;;;2.13;;
419;SDS011;42600;54.408;13.016;2022-08-01T05:23:01;6.50;;;1.40;;
419;SDS011;42600;54.408;13.016;2022-08-01T05:25:28;3.93;;;1.40;;
419;SDS011;42600;54.408;13.016;2022-08-01T05:27:55;3.40;;;1.97;;
419;SDS011;42600;54.408;13.016;2022-08-01T05:30:21;5.87;;;1.30;;
419;SDS011;42600;54.408;13.016;2022-08-01T05:32:48;9.80;;;1.67;;
419;SDS011;42600;54.408;13.016;2022-08-01T05:35:14;2.10;;;1.20;;
419;SDS011;42600;54.408;13.016;2022-08-01T05:37:43;5.87;;;1.57;;
419;SDS011;42600;54.408;13.016;2022-08-01T05:40:10;3.67;;;2.07;;
419;SDS011;42600;54.408;13.016;2022-08-01T05:42:37;3.07;;;1.63;;
419;SDS011;42600;54.408;13.016;2022-08-01T05:45:04;2.90;;;1.70;;
419;SDS011;42600;54.408;13.016;2022-08-01T05:47:31;7.27;;;2.00;;
419;SDS011;42600;54.408;13.016;2022-08-01T05:49:58;2.93;;;1.20;;
419;SDS011;42600;54.408;13.016;2022-08-01T05:52:24;3.87;;;2.17;;
419;SDS011;42600;54.408;13.016;2022-08-01T05:54:52;6.20;;;1.83;;
419;SDS011;42600;54.408;13.016;2022-08-01T05:57:19;3.17;;;1.83;;
419;SDS011;42600;54.408;13.016;2022-08-01T05:59:45;2.30;;;1.23;;
419;SDS011;42600;54.408;13.016;2022-08-01T06:02:12;2.73;;;1.47;;
419;SDS011;42600;54.408;13.016;2022-08-01T06:04:38;5.20;;;1.60;;
419;SDS011;42600;54.408;13.016;2022-08-01T06:07:05;3.37;;;1.53;;
419;SDS011;42600;54.408;13.016;2022-08-01T06:09:32;5.80;;;1.73;;
419;SDS011;42600;54.408;13.016;2022-08-01T06:12:00;2.80;;;1.37;;
419;SDS011;42600;54.408;13.016;2022-08-01T06:14:26;5.47;;;2.00;;
419;SDS011;42600;54.408;13.016;2022-08-01T06:16:53;2.17;;;1.47;;
419;SDS011;42600;54.408;13.016;2022-08-01T06:19:20;4.87;;;1.70;;
419;SDS011;42600;54.408;13.016;2022-08-01T06:21:46;10.10;;;2.20;;
419;SDS011;42600;54.408;13.016;2022-08-01T06:24:13;4.87;;;1.40;;
419;SDS011;42600;54.408;13.016;2022-08-01T06:26:39;3.27;;;1.53;;
419;SDS011;42600;54.408;13.016;2022-08-01T06:29:07;3.43;;;1.40;;
419;SDS011;42600;54.408;13.016;2022-08-01T06:31:34;2.50;;;1.50;;
419;SDS011;42600;54.408;13.016;2022-08-01T06:34:00;2.63;;;1.60;;
419;SDS011;42600;54.408;13.016;2022-08-01T06:36:27;6.03;;;1.37;;
419;SDS011;42600;54.408;13.016;2022-08-01T06:38:53;4.40;;;1.77;;
419;SDS011;42600;54.408;13.016;2022-08-01T06:41:20;5.93;;;1.80;;
419;SDS011;42600;54.408;13.016;2022-08-01T06:43:47;5.73;;;1.73;;
419;SDS011;42600;54.408;13.016;2022-08-01T06:46:15;9.27;;;2.27;;
419;SDS011;42600;54.408;13.016;2022-08-01T06:48:41;2.30;;;1.50;;
419;SDS011;42600;54.408;13.016;2022-08-01T06:51:08;4.87;;;1.73;;
419;SDS011;42600;54.408;13.016;2022-08-01T06:53:36;6.20;;;3.70;;
419;SDS011;42600;54.408;13.016;2022-08-01T06:56:04;2.53;;;1.67;;
419;SDS011;42600;54.408;13.016;2022-08-01T06:58:31;6.17;;;2.33;;
419;SDS011;42600;54.408;13.016;2022-08-01T07:00:59;3.27;;;1.80;;
419;SDS011;42600;54.408;13.016;2022-08-01T07:03:27;2.20;;;1.30;;
419;SDS011;42600;54.408;13.016;2022-08-01T07:05:53;5.60;;;2.50;;
419;SDS011;42600;54.408;13.016;2022-08-01T07:08:20;4.40;;;1.80;;
419;SDS011;42600;54.408;13.016;2022-08-01T07:10:47;3.07;;;1.93;;
419;SDS011;42600;54.408;13.016;2022-08-01T07:13:13;3.50;;;2.07;;
419;SDS011;42600;54.408;13.016;2022-08-01T07:15:45;3.60;;;2.57;;
419;SDS011;42600;54.408;13.016;2022-08-01T07:18:12;2.83;;;1.70;;
419;SDS011;42600;54.408;13.016;2022-08-01T07:20:39;5.50;;;2.50;;
419;SDS011;42600;54.408;13.016;2022-08-01T07:23:06;4.73;;;2.70;;
419;SDS011;42600;54.408;13.016;2022-08-01T07:25:33;4.20;;;2.20;;
419;SDS011;42600;54.408;13.016;2022-08-01T07:27:59;4.57;;;2.87;;
419;SDS011;42600;54.408;13.016;2022-08-01T07:30:26;4.53;;;2.80;;
419;SDS011;42600;54.408;13.016;2022-08-01T07:32:52;5.90;;;2.53;;
419;SDS011;42600;54.408;13.016;2022-08-01T07:35:19;4.33;;;2.70;;
419;SDS011;42600;54.408;13.016;2022-08-01T07:37:47;10.03;;;2.67;;
419;SDS011;42600;54.408;13.016;2022-08-01T07:40:14;5.10;;;2.73;;
419;SDS011;42600;54.408;13.016;2022-08-01T07:42:41;7.00;;;2.80;;
419;SDS011;42600;54.408;13.016;2022-08-01T07:45:10;7.30;;;2.27;;
419;SDS011;42600;54.408;13.016;2022-08-01T07:47:37;8.30;;;2.77;;
419;SDS011;42600;54.408;13.016;2022-08-01T07:50:04;4.80;;;2.37;;
419;SDS011;42600;54.408;13.016;2022-08-01T07:52:31;8.40;;;2.53;;
419;SDS011;42600;54.408;13.016;2022-08-01T07:54:59;6.30;;;2.70;;
419;SDS011;42600;54.408;13.016;2022-08-01T07:57:26;5.83;;;2.87;;
419;SDS011;42600;54.408;13.016;2022-08-01T07:59:53;3.10;;;2.40;;
419;SDS011;42600;54.408;13.016;2022-08-01T08:02:19;3.30;;;2.47;;
419;SDS011;42600;54.408;13.016;2022-08-01T08:04:46;3.90;;;2.60;;
419;SDS011;42600;54.408;13.016;2022-08-01T08:07:12;4.37;;;2.60;;
419;SDS011;42600;54.408;13.016;2022-08-01T08:09:39;4.43;;;1.97;;
419;SDS011;42600;54.408;13.016;2022-08-01T08:12:07;5.07;;;2.23;;
419;SDS011;42600;54.408;13.016;2022-08-01T08:14:34;8.50;;;3.23;;
419;SDS011;42600;54.408;13.016;2022-08-01T08:17:00;5.83;;;2.53;;
419;SDS011;42600;54.408;13.016;2022-08-01T08:19:27;5.50;;;3.27;;
419;SDS011;42600;54.408;13.016;2022-08-01T08:21:54;5.80;;;3.10;;
419;SDS011;42600;54.408;13.016;2022-08-01T08:24:20;3.53;;;1.90;;
419;SDS011;42600;54.408;13.016;2022-08-01T08:26:49;4.67;;;3.00;;
419;SDS011;42600;54.408;13.016;2022-08-01T08:29:20;3.73;;;2.10;;
419;SDS011;42600;54.408;13.016;2022-08-01T08:31:47;4.30;;;2.80;;
419;SDS011;42600;54.408;13.016;2022-08-01T08:34:14;4.40;;;2.33;;
419;SDS011;42600;54.408;13.016;2022-08-01T08:36:41;4.80;;;3.10;;
419;SDS011;42600;54.408;13.016;2022-08-01T08:39:07;7.03;;;3.30;;
419;SDS011;42600;54.408;13.016;2022-08-01T08:41:34;5.37;;;2.70;;
419;SDS011;42600;54.408;13.016;2022-08-01T08:44:01;6.90;;;2.30;;
419;SDS011;42600;54.408;13.016;2022-08-01T08:46:30;6.80;;;3.47;;
419;SDS011;42600;54.408;13.016;2022-08-01T08:48:59;5.17;;;2.43;;
419;SDS011;42600;54.408;13.016;2022-08-01T08:51:27;4.30;;;3.00;;
419;SDS011;42600;54.408;13.016;2022-08-01T08:53:56;6.30;;;3.40;;
419;SDS011;42600;54.408;13.016;2022-08-01T08:56:23;9.40;;;4.60;;
419;SDS011;42600;54.408;13.016;2022-08-01T08:58:54;8.50;;;4.73;;
419;SDS011;42600;54.408;13.016;2022-08-01T09:01:21;10.33;;;4.40;;
419;SDS011;42600;54.408;13.016;2022-08-01T09:03:49;6.47;;;3.20;;
419;SDS011;42600;54.408;13.016;2022-08-01T09:06:16;9.03;;;4.20;;
419;SDS011;42600;54.408;13.016;2022-08-01T09:08:43;8.80;;;3.77;;
419;SDS011;42600;54.408;13.016;2022-08-01T09:11:10;12.47;;;4.43;;
419;SDS011;42600;54.408;13.016;2022-08-01T09:13:36;10.57;;;5.03;;
419;SDS011;42600;54.408;13.016;2022-08-01T09:16:03;6.03;;;3.53;;
419;SDS011;42600;54.408;13.016;2022-08-01T09:18:31;10.73;;;4.23;;
419;SDS011;42600;54.408;13.016;2022-08-01T09:21:11;14.73;;;5.07;;
419;SDS011;42600;54.408;13.016;2022-08-01T09:23:43;15.10;;;3.97;;
419;SDS011;42600;54.408;13.016;2022-08-01T09:26:11;5.27;;;3.40;;
419;SDS011;42600;54.408;13.016;2022-08-01T09:28:39;10.20;;;4.30;;
419;SDS011;42600;54.408;13.016;2022-08-01T09:31:07;7.63;;;4.57;;
419;SDS011;42600;54.408;13.016;2022-08-01T09:33:48;7.70;;;4.77;;
419;SDS011;42600;54.408;13.016;2022-08-01T09:36:17;8.20;;;4.20;;
419;SDS011;42600;54.408;13.016;2022-08-01T09:38:44;4.60;;;3.00;;
419;SDS011;42600;54.408;13.016;2022-08-01T09:41:10;3.07;;;1.90;;
419;SDS011;42600;54.408;13.016;2022-08-01T09:43:37;2.53;;;1.40;;
419;SDS011;42600;54.408;13.016;2022-08-01T09:46:04;1.47;;;0.93;;
419;SDS011;42600;54.408;13.016;2022-08-01T09:48:34;3.33;;;1.30;;
419;SDS011;42600;54.408;13.016;2022-08-01T09:51:04;6.03;;;1.40;;
419;SDS011;42600;54.408;13.016;2022-08-01T09:53:42;3.27;;;1.70;;
419;SDS011;42600;54.408;13.016;2022-08-01T09:56:11;2.30;;;1.50;;
419;SDS011;42600;54.408;13.016;2022-08-01T10:01:21;2.40;;;1.13;;
419;SDS011;42600;54.408;13.016;2022-08-01T10:04:05;4.37;;;1.77;;
419;SDS011;42600;54.408;13.016;2022-08-01T10:06:34;2.67;;;1.47;;
419;SDS011;42600;54.408;13.016;2022-08-01T10:09:03;3.27;;;2.10;;
419;SDS011;42600;54.408;13.016;2022-08-01T10:11:30;4.50;;;1.40;;
419;SDS011;42600;54.408;13.016;2022-08-01T10:13:58;2.53;;;1.60;;
419;SDS011;42600;54.408;13.016;2022-08-01T10:16:26;4.00;;;1.40;;
419;SDS011;42600;54.408;13.016;2022-08-01T10:18:54;1.60;;;0.90;;
419;SDS011;42600;54.408;13.016;2022-08-01T10:21:22;3.10;;;1.20;;
419;SDS011;42600;54.408;13.016;2022-08-01T10:23:51;2.67;;;1.40;;
419;SDS011;42600;54.408;13.016;2022-08-01T10:26:22;1.90;;;1.30;;
419;SDS011;42600;54.408;13.016;2022-08-01T10:28:51;2.90;;;1.10;;
419;SDS011;42600;54.408;13.016;2022-08-01T10:31:20;3.23;;;1.37;;
419;SDS011;42600;54.408;13.016;2022-08-01T10:33:47;1.60;;;1.20;;
419;SDS011;42600;54.408;13.016;2022-08-01T10:36:14;2.50;;;1.60;;
419;SDS011;42600;54.408;13.016;2022-08-01T10:38:44;1.90;;;1.20;;
419;SDS011;42600;54.408;13.016;2022-08-01T10:41:11;1.30;;;0.80;;
419;SDS011;42600;54.408;13.016;2022-08-01T10:43:41;2.27;;;1.47;;
419;SDS011;42600;54.408;13.016;2022-08-01T10:46:08;5.07;;;1.40;;
419;SDS011;42600;54.408;13.016;2022-08-01T10:48:39;2.03;;;1.13;;
419;SDS011;42600;54.408;13.016;2022-08-01T10:51:11;2.60;;;1.73;;
419;SDS011;42600;54.408;13.016;2022-08-01T10:53:38;2.63;;;1.90;;
419;SDS011;42600;54.408;13.016;2022-08-01T10:56:12;3.83;;;1.40;;
419;SDS011;42600;54.408;13.016;2022-08-01T10:58:41;2.30;;;1.20;;
419;SDS011;42600;54.408;13.016;2022-08-01T11:01:20;3.30;;;1.67;;
419;SDS011;42600;54.408;13.016;2022-08-01T11:04:00;2.70;;;1.53;;
419;SDS011;42600;54.408;13.016;2022-08-01T11:06:35;2.47;;;1.40;;
419;SDS011;42600;54.408;13.016;2022-08-01T11:09:15;3.57;;;1.50;;
419;SDS011;42600;54.408;13.016;2022-08-01T11:12:03;2.23;;;1.13;;
419;SDS011;42600;54.408;13.016;2022-08-01T11:15:15;4.53;;;1.83;;
419;SDS011;42600;54.408;13.016;2022-08-01T11:17:41;2.07;;;1.60;;
419;SDS011;42600;54.408;13.016;2022-08-01T11:20:12;2.23;;;1.30;;
419;SDS011;42600;54.408;13.016;2022-08-01T11:31:43;4.07;;;2.70;;
419;SDS011;42600;54.408;13.016;2022-08-01T11:34:11;3.57;;;2.03;;
419;SDS011;42600;54.408;13.016;2022-08-01T11:36:37;4.80;;;1.97;;
419;SDS011;42600;54.408;13.016;2022-08-01T11:39:11;5.53;;;2.80;;
419;SDS011;42600;54.408;13.016;2022-08-01T11:41:45;5.93;;;2.70;;
419;SDS011;42600;54.408;13.016;2022-08-01T11:44:13;3.67;;;2.20;;
419;SDS011;42600;54.408;13.016;2022-08-01T11:46:50;4.07;;;1.97;;
419;SDS011;42600;54.408;13.016;2022-08-01T11:49:22;7.90;;;3.00;;
419;SDS011;42600;54.408;13.016;2022-08-01T11:51:59;5.17;;;2.30;;
419;SDS011;42600;54.408;13.016;2022-08-01T11:54:28;8.07;;;3.00;;
419;SDS011;42600;54.408;13.016;2022-08-01T11:56:56;3.70;;;1.60;;
419;SDS011;42600;54.408;13.016;2022-08-01T11:59:23;5.53;;;1.73;;
419;SDS011;42600;54.408;13.016;2022-08-01T12:01:51;5.43;;;3.00;;
419;SDS011;42600;54.408;13.016;2022-08-01T12:04:18;4.90;;;2.50;;
419;SDS011;42600;54.408;13.016;2022-08-01T12:06:45;5.40;;;2.00;;
419;SDS011;42600;54.408;13.016;2022-08-01T12:09:18;4.17;;;1.87;;
419;SDS011;42600;54.408;13.016;2022-08-01T12:11:47;5.80;;;1.70;;
419;SDS011;42600;54.408;13.016;2022-08-01T12:14:18;4.53;;;1.60;;
419;SDS011;42600;54.408;13.016;2022-08-01T12:16:54;10.63;;;1.83;;
419;SDS011;42600;54.408;13.016;2022-08-01T12:19:21;2.90;;;1.47;;
419;SDS011;42600;54.408;13.016;2022-08-01T12:22:05;5.33;;;1.57;;
419;SDS011;42600;54.408;13.016;2022-08-01T12:24:37;4.90;;;1.90;;
419;SDS011;42600;54.408;13.016;2022-08-01T12:27:08;6.33;;;2.10;;
419;SDS011;42600;54.408;13.016;2022-08-01T12:29:36;9.50;;;2.33;;
419;SDS011;42600;54.408;13.016;2022-08-01T12:32:15;5.40;;;1.30;;
419;SDS011;42600;54.408;13.016;2022-08-01T12:34:49;11.03;;;1.80;;
419;SDS011;42600;54.408;13.016;2022-08-01T12:37:16;3.20;;;1.10;;
419;SDS011;42600;54.408;13.016;2022-08-01T12:39:43;3.83;;;1.17;;
419;SDS011;42600;54.408;13.016;2022-08-01T12:42:12;8.40;;;2.00;;
419;SDS011;42600;54.408;13.016;2022-08-01T12:44:39;4.27;;;1.13;;
419;SDS011;42600;54.408;13.016;2022-08-01T12:47:09;2.70;;;1.10;;
419;SDS011;42600;54.408;13.016;2022-08-01T12:49:37;7.00;;;1.30;;
419;SDS011;42600;54.408;13.016;2022-08-01T12:52:05;3.93;;;1.23;;
419;SDS011;42600;54.408;13.016;2022-08-01T12:57:34;2.47;;;1.27;;
419;SDS011;42600;54.408;13.016;2022-08-01T13:02:49;3.83;;;1.77;;
419;SDS011;42600;54.408;13.016;2022-08-01T13:05:25;5.93;;;1.57;;
419;SDS011;42600;54.408;13.016;2022-08-01T13:07:52;2.60;;;1.27;;
419;SDS011;42600;54.408;13.016;2022-08-01T13:10:25;7.17;;;1.47;;
419;SDS011;42600;54.408;13.016;2022-08-01T13:12:54;6.07;;;3.30;;
419;SDS011;42600;54.408;13.016;2022-08-01T13:15:24;2.97;;;1.17;;
419;SDS011;42600;54.408;13.016;2022-08-01T13:17:54;4.70;;;1.53;;
419;SDS011;42600;54.408;13.016;2022-08-01T13:23:12;3.77;;;1.40;;
419;SDS011;42600;54.408;13.016;2022-08-01T13:25:50;3.80;;;1.13;;
419;SDS011;42600;54.408;13.016;2022-08-01T13:28:19;5.50;;;1.77;;
419;SDS011;42600;54.408;13.016;2022-08-01T13:30:53;1.10;;;0.70;;
419;SDS011;42600;54.408;13.016;2022-08-01T13:33:26;3.40;;;1.27;;
419;SDS011;42600;54.408;13.016;2022-08-01T13:35:55;2.20;;;0.90;;
419;SDS011;42600;54.408;13.016;2022-08-01T13:38:22;1.97;;;0.90;;
419;SDS011;42600;54.408;13.016;2022-08-01T13:41:03;3.40;;;1.00;;
419;SDS011;42600;54.408;13.016;2022-08-01T13:43:30;1.63;;;0.83;;
419;SDS011;42600;54.408;13.016;2022-08-01T13:45:59;5.90;;;3.00;;
419;SDS011;42600;54.408;13.016;2022-08-01T13:48:29;11.10;;;1.27;;
419;SDS011;42600;54.408;13.016;2022-08-01T13:50:56;2.70;;;0.80;;
419;SDS011;42600;54.408;13.016;2022-08-01T13:53:22;2.43;;;1.40;;
419;SDS011;42600;54.408;13.016;2022-08-01T13:55:49;4.30;;;1.07;;
419;SDS011;42600;54.408;13.016;2022-08-01T13:58:16;3.20;;;2.57;;
419;SDS011;42600;54.408;13.016;2022-08-01T14:00:42;3.53;;;1.00;;
419;SDS011;42600;54.408;13.016;2022-08-01T14:03:10;3.53;;;1.00;;
419;SDS011;42600;54.408;13.016;2022-08-01T14:05:38;5.60;;;0.90;;
419;SDS011;42600;54.408;13.016;2022-08-01T14:08:05;3.30;;;1.07;;
419;SDS011;42600;54.408;13.016;2022-08-01T14:10:32;4.10;;;1.33;;
419;SDS011;42600;54.408;13.016;2022-08-01T14:12:59;4.27;;;1.10;;
419;SDS011;42600;54.408;13.016;2022-08-01T14:15:26;1.90;;;1.10;;
419;SDS011;42600;54.408;13.016;2022-08-01T14:17:52;3.37;;;2.73;;
419;SDS011;42600;54.408;13.016;2022-08-01T14:20:19;4.23;;;1.47;;
419;SDS011;42600;54.408;13.016;2022-08-01T14:22:47;8.30;;;1.93;;
419;SDS011;42600;54.408;13.016;2022-08-01T14:25:14;5.17;;;1.80;;
419;SDS011;42600;54.408;13.016;2022-08-01T14:27:43;3.17;;;1.70;;
419;SDS011;42600;54.408;13.016;2022-08-01T14:30:10;14.23;;;1.67;;
419;SDS011;42600;54.408;13.016;2022-08-01T14:32:37;6.50;;;1.63;;
419;SDS011;42600;54.408;13.016;2022-08-01T14:35:04;1.77;;;0.93;;
419;SDS011;42600;54.408;13.016;2022-08-01T14:37:32;2.87;;;1.30;;
419;SDS011;42600;54.408;13.016;2022-08-01T14:40:00;4.13;;;1.40;;
419;SDS011;42600;54.408;13.016;2022-08-01T14:42:32;4.97;;;1.40;;
419;SDS011;42600;54.408;13.016;2022-08-01T14:44:59;6.10;;;1.37;;
419;SDS011;42600;54.408;13.016;2022-08-01T14:47:26;4.23;;;1.53;;
419;SDS011;42600;54.408;13.016;2022-08-01T14:49:52;7.90;;;2.53;;
419;SDS011;42600;54.408;13.016;2022-08-01T14:52:19;6.07;;;2.10;;
419;SDS011;42600;54.408;13.016;2022-08-01T14:54:46;3.10;;;1.50;;
419;SDS011;42600;54.408;13.016;2022-08-01T14:57:14;4.10;;;1.37;;
419;SDS011;42600;54.408;13.016;2022-08-01T14:59:43;15.67;;;2.73;;
419;SDS011;42600;54.408;13.016;2022-08-01T15:02:09;7.03;;;1.90;;
419;SDS011;42600;54.408;13.016;2022-08-01T15:04:36;7.90;;;2.60;;
419;SDS011;42600;54.408;13.016;2022-08-01T15:07:02;7.43;;;1.83;;
419;SDS011;42600;54.408;13.016;2022-08-01T15:09:29;7.43;;;2.30;;
419;SDS011;42600;54.408;13.016;2022-08-01T15:11:56;3.13;;;1.57;;
419;SDS011;42600;54.408;13.016;2022-08-01T15:14:25;3.67;;;2.07;;
419;SDS011;42600;54.408;13.016;2022-08-01T15:17:09;6.10;;;2.13;;
419;SDS011;42600;54.408;13.016;2022-08-01T15:19:35;6.70;;;1.70;;
419;SDS011;42600;54.408;13.016;2022-08-01T15:22:03;5.17;;;1.90;;
419;SDS011;42600;54.408;13.016;2022-08-01T15:24:30;3.83;;;1.40;;
419;SDS011;42600;54.408;13.016;2022-08-01T15:26:56;4.00;;;1.23;;
419;SDS011;42600;54.408;13.016;2022-08-01T15:29:24;2.20;;;1.23;;
419;SDS011;42600;54.408;13.016;2022-08-01T15:31:51;11.90;;;2.10;;